• Join FlightAware (Why Join?)
  • Login
  • US Flag 
04:13AM EDT


 

Airport Tracker/Info


-or-


 

Live Flight TrackerFlight Track Log ✈ NCB1851 ✈ 31-May-2012 ✈ CYEG - CYYC

Flight Track Log - Related Links

Times and Time Zones

All times are in EDT time to prevent confusion due to time zone crossing. See the NCB1851 flight status page for this flight to view local times or setup timezone preferences in your user account.

Time Position Orientation Groundspeed Altitude Reporting Facility
EDT Latitude Longitude Course Direction KTS MPH feet Rate Location/Type
12:02PM 53.3167 -113.5833 61° Northeast 110 127 3,100  Level Edmonton Center
12:03PM 53.3333 -113.5333 113° Southeast 150 173 4,300 1,080 Climbing Edmonton Center
12:04PM 53.3167 -113.4667 180° South 180 207 5,300 1,080 Climbing Edmonton Center
12:05PM 53.2667 -113.4667 191° South 180 207 6,500 1,140 Climbing Edmonton Center
12:06PM 53.2167 -113.4833 189° South 180 207 7,600 1,080 Climbing Edmonton Center
12:07PM 53.1500 -113.5000 169° South 190 219 8,700 1,080 Climbing Edmonton Center
12:08PM 53.1000 -113.4833 191° South 200 230 9,800 1,200 Climbing Edmonton Center
12:09PM 53.0500 -113.5000 180° South 200 230 11,100 1,140 Climbing Edmonton Center
12:10PM 53.0000 -113.5000 180° South 190 219 12,100 1,080 Climbing Edmonton Center
12:11PM 52.9333 -113.5000 191° South 200 230 13,300 1,140 Climbing Edmonton Center
12:12PM 52.8833 -113.5167 180° South 200 230 14,400 960 Climbing Edmonton Center
12:13PM 52.8333 -113.5167 187° South 200 230 15,300 840 Climbing Edmonton Center
12:14PM 52.7500 -113.5333 169° South 210 242 16,100 840 Climbing Edmonton Center
12:15PM 52.7000 -113.5167 189° South 210 242 17,000 420 Climbing Edmonton Center
12:16PM 52.6333 -113.5333 189° South 230 265 17,000  Level Edmonton Center
12:17PM 52.5667 -113.5500 180° South 240 276 17,000  Level Edmonton Center
12:18PM 52.5000 -113.5500 180° South 250 288 17,000  Level Edmonton Center
12:19PM 52.4333 -113.5500 180° South 250 288 17,000  Level Edmonton Center
12:20PM 52.3667 -113.5500 189° South 250 288 17,000  Level Edmonton Center
12:21PM 52.3000 -113.5667 189° South 250 288 17,000  Level Edmonton Center
12:22PM 52.2333 -113.5833 171° South 250 288 17,000  Level Edmonton Center
12:23PM 52.1667 -113.5667 187° South 250 288 17,000  Level Edmonton Center
12:24PM 52.0833 -113.5833 189° South 260 299 17,000  Level Edmonton Center
12:25PM 52.0167 -113.6000 187° South 260 299 17,000 -480 Level Edmonton Center
12:26PM 51.9333 -113.6167 180° South 260 299 16,100 -1,200 Descending Edmonton Center
12:27PM 51.8667 -113.6167 187° South 280 322 14,700 -1,500 Descending Edmonton Center
12:28PM 51.7833 -113.6333 189° South 280 322 13,100 -1,500 Descending Edmonton Center
12:29PM 51.7167 -113.6500 194° South 270 311 11,700 -1,200 Descending Edmonton Center
12:30PM 51.6333 -113.6833 189° South 260 299 10,800 -780 Descending Edmonton Center
12:31PM 51.5667 -113.7000 212° Southwest 240 276 10,200 -660 Descending Edmonton Center
12:32PM 51.5167 -113.7500 197° South 230 265 9,500 -780 Descending Edmonton Center
12:33PM 51.4500 -113.7833 237° Southwest 230 265 8,700 -780 Descending Edmonton Center
12:34PM 51.4167 -113.8667 255° West 230 265 8,000 -720 Descending Edmonton Center
12:35PM 51.4000 -113.9667 223° Southwest 230 265 7,300 -600 Descending Edmonton Center
12:36PM 51.3667 -114.0167 197° South 200 230 6,800 -420 Descending Edmonton Center
12:37PM 51.3000 -114.0500 171° South 200 230 6,500 -300 Descending Edmonton Center
12:38PM 51.2333 -114.0333 192° South 200 230 6,300 -600 Descending Edmonton Center
12:39PM 51.1833 -114.0500 180° South 190 219 5,300 -960 Descending Edmonton Center
12:40PM 51.1500 -114.0500 168° South 170 196 4,400 -780 Descending Edmonton Center
12:41PM 51.1000 -114.0333 168° South 130 150 3,800 -600 Descending Edmonton Center